Time;durP1;ratioP1;P1;durP2;ratioP2;P2;SDS_P1;SDS_P2;PMS_P1;PMS_P2;Temp;Humidity;BMP_temperature;BMP_pressure;BME280_temperature;BME280_humidity;BME280_pressure;Samples;Min_cycle;Max_cycle;Signal;HPM_P1;HPM_P2
2023/04/01 00:00:55;;;;;;;12.05;5.30;;;10.20;99.90;;;;;;5061272;28;20036;-79
2023/04/01 00:03:22;;;;;;;13.50;5.60;;;10.20;99.90;;;;;;5061931;28;20518;-78
2023/04/01 00:05:48;;;;;;;11.48;4.90;;;10.20;99.90;;;;;;5045870;28;20036;-79
2023/04/01 00:08:14;;;;;;;12.27;5.40;;;10.20;99.90;;;;;;5047670;28;20058;-79
2023/04/01 00:10:40;;;;;;;12.20;5.85;;;10.20;99.90;;;;;;5063803;28;20556;-79
2023/04/01 00:13:06;;;;;;;11.40;5.60;;;10.20;99.90;;;;;;5049063;28;20076;-79
2023/04/01 00:15:32;;;;;;;10.18;5.38;;;10.20;99.90;;;;;;5061574;28;20433;-79
2023/04/01 00:17:58;;;;;;;10.90;5.32;;;10.20;99.90;;;;;;5062882;28;20041;-79
2023/04/01 00:20:25;;;;;;;10.25;5.20;;;10.20;99.90;;;;;;5062269;28;20032;-79
2023/04/01 00:22:51;;;;;;;12.07;5.55;;;10.20;99.90;;;;;;5047067;28;20500;-79
2023/04/01 00:25:18;;;;;;;9.95;5.30;;;10.20;99.90;;;;;;5049800;28;20417;-79
2023/04/01 00:27:44;;;;;;;10.20;5.70;;;10.10;99.90;;;;;;5065256;28;20109;-79
2023/04/01 00:30:10;;;;;;;10.95;5.50;;;10.20;99.90;;;;;;5036066;28;20130;-79
2023/04/01 00:32:37;;;;;;;10.48;5.55;;;10.10;99.90;;;;;;5031046;28;20048;-79
2023/04/01 00:35:03;;;;;;;12.82;5.45;;;10.10;99.90;;;;;;5029838;28;20064;-79
2023/04/01 00:37:37;;;;;;;12.50;5.60;;;10.10;99.90;;;;;;5029028;28;20183;-79
2023/04/01 00:40:11;;;;;;;11.80;5.90;;;10.10;99.90;;;;;;5029480;28;20467;-78
2023/04/01 00:42:36;;;;;;;13.05;6.07;;;10.10;99.90;;;;;;5030394;28;20125;-79
2023/04/01 00:45:24;;;;;;;11.27;5.85;;;10.10;99.90;;;;;;5045523;28;20037;-79
2023/04/01 00:47:50;;;;;;;11.52;6.03;;;10.10;99.90;;;;;;5046527;28;20426;-79
2023/04/01 00:50:16;;;;;;;11.48;6.50;;;10.10;99.90;;;;;;5028809;28;20044;-79
2023/04/01 00:52:42;;;;;;;10.75;5.53;;;10.10;99.90;;;;;;5029325;28;20037;-79
2023/04/01 00:55:12;;;;;;;11.25;6.25;;;10.10;99.90;;;;;;5030218;28;20045;-79
2023/04/01 00:57:39;;;;;;;11.45;6.45;;;10.10;99.90;;;;;;5044784;28;20048;-79
2023/04/01 01:00:10;;;;;;;12.00;6.50;;;10.10;99.90;;;;;;5047105;28;20037;-80
2023/04/01 01:02:37;;;;;;;12.35;6.97;;;10.10;99.90;;;;;;5045207;28;20037;-79
2023/04/01 01:05:03;;;;;;;11.73;6.78;;;10.10;99.90;;;;;;5046674;28;20029;-80
2023/04/01 01:07:39;;;;;;;11.50;6.60;;;10.10;99.90;;;;;;5012663;28;20487;-80
2023/04/01 01:10:04;;;;;;;15.05;6.80;;;10.10;99.90;;;;;;5032984;28;20117;-80
2023/04/01 01:12:38;;;;;;;12.00;6.88;;;10.10;99.90;;;;;;5043594;28;20454;-80
2023/04/01 01:15:25;;;;;;;11.25;6.22;;;10.10;99.90;;;;;;5046218;28;20048;-80
2023/04/01 01:18:20;;;;;;;10.68;6.70;;;10.10;99.90;;;;;;5024182;28;20487;-80
2023/04/01 01:21:19;;;;;;;11.00;6.50;;;10.10;99.90;;;;;;5046439;28;20469;-80
2023/04/01 01:24:13;;;;;;;11.57;6.50;;;10.10;99.90;;;;;;5066330;28;20044;-80
2023/04/01 01:26:58;;;;;;;;;;;10.10;99.90;;;;;;5064993;28;20047;-80
2023/04/01 01:29:55;;;;;;;12.80;7.07;;;10.10;99.90;;;;;;5065633;28;19924;-80
2023/04/01 01:32:43;;;;;;;11.32;6.22;;;10.10;99.90;;;;;;5062045;28;20520;-80
2023/04/01 01:35:27;;;;;;;13.60;6.95;;;10.10;99.90;;;;;;5064461;28;20042;-80
2023/04/01 01:37:58;;;;;;;12.02;7.38;;;10.10;99.90;;;;;;5047954;28;20045;-80
2023/04/01 01:40:26;;;;;;;12.10;6.72;;;10.10;99.90;;;;;;5079903;28;20278;-80
2023/04/01 01:42:57;;;;;;;13.70;7.15;;;10.10;99.90;;;;;;5067894;28;20024;-80
2023/04/01 01:45:26;;;;;;;11.63;6.15;;;10.10;99.90;;;;;;5064880;28;20127;-80
2023/04/01 01:47:52;;;;;;;13.65;7.43;;;10.10;99.90;;;;;;5066104;28;20120;-80
2023/04/01 01:50:20;;;;;;;12.32;6.60;;;10.10;99.90;;;;;;5048320;28;20041;-80
2023/04/01 01:52:46;;;;;;;12.02;7.45;;;10.10;99.90;;;;;;5063853;28;20385;-80
2023/04/01 01:55:30;;;;;;;12.50;7.05;;;10.10;99.90;;;;;;5032883;28;20050;-80
2023/04/01 01:58:02;;;;;;;11.38;6.25;;;10.00;99.90;;;;;;5062599;28;20123;-80
2023/04/01 02:00:28;;;;;;;11.98;6.38;;;10.00;99.90;;;;;;5065680;28;20048;-80
2023/04/01 02:02:54;;;;;;;11.93;7.10;;;10.00;99.90;;;;;;5066479;28;20082;-80
2023/04/01 02:05:26;;;;;;;11.95;6.95;;;10.00;99.90;;;;;;5049057;28;20138;-80
2023/04/01 02:08:07;;;;;;;11.57;7.25;;;10.00;99.90;;;;;;5049820;28;20417;-80
2023/04/01 02:10:37;;;;;;;12.43;7.10;;;10.00;99.90;;;;;;5046597;28;20041;-80
2023/04/01 02:13:14;;;;;;;13.35;7.07;;;10.00;99.90;;;;;;5048519;28;20040;-80
2023/04/01 02:15:45;;;;;;;12.18;7.07;;;10.00;99.90;;;;;;5045858;28;20123;-80
2023/04/01 02:18:13;;;;;;;13.90;7.07;;;10.00;99.90;;;;;;5046905;28;20190;-80
2023/04/01 02:20:39;;;;;;;12.40;6.78;;;10.00;99.90;;;;;;5065498;28;20032;-80
2023/04/01 02:23:07;;;;;;;12.75;7.22;;;10.00;99.90;;;;;;5048958;28;20367;-80
2023/04/01 02:25:37;;;;;;;13.98;7.50;;;10.00;99.90;;;;;;5065635;28;20044;-80
2023/04/01 02:28:06;;;;;;;13.93;7.45;;;10.00;99.90;;;;;;5062363;28;20044;-80
2023/04/01 02:30:35;;;;;;;12.38;6.85;;;10.00;99.90;;;;;;5064401;28;20044;-80
2023/04/01 02:33:01;;;;;;;13.13;7.88;;;10.00;99.90;;;;;;5050001;28;20048;-80
2023/04/01 02:35:27;;;;;;;12.85;7.60;;;10.00;99.90;;;;;;5061766;28;20127;-80
2023/04/01 02:37:54;;;;;;;13.50;8.20;;;9.70;99.90;;;;;;5031177;28;20052;-80
2023/04/01 02:40:20;;;;;;;13.80;8.38;;;10.00;99.90;;;;;;5060348;28;20037;-80
2023/04/01 02:42:46;;;;;;;16.08;8.45;;;9.90;99.90;;;;;;5031350;28;20040;-80
2023/04/01 02:45:12;;;;;;;13.82;8.40;;;9.90;99.90;;;;;;5063835;28;20040;-80
2023/04/01 02:47:38;;;;;;;15.50;9.52;;;9.90;99.90;;;;;;5047730;28;20417;-80
2023/04/01 02:50:05;;;;;;;15.98;9.00;;;9.90;99.90;;;;;;5064080;28;20040;-80
2023/04/01 02:52:31;;;;;;;15.52;8.70;;;9.90;99.90;;;;;;5046925;28;20085;-80
2023/04/01 02:54:57;;;;;;;15.77;9.35;;;9.90;99.90;;;;;;5065647;28;20764;-80
2023/04/01 02:57:24;;;;;;;15.80;9.57;;;9.90;99.90;;;;;;5059893;28;20062;-80
2023/04/01 02:59:49;;;;;;;14.10;9.15;;;9.80;99.90;;;;;;5064663;28;20131;-80
2023/04/01 03:02:16;;;;;;;14.30;9.32;;;9.80;99.90;;;;;;5031840;28;20119;-80
2023/04/01 03:04:42;;;;;;;15.57;9.93;;;9.80;99.90;;;;;;5062227;28;20036;-80
2023/04/01 03:07:09;;;;;;;15.93;9.98;;;9.80;99.90;;;;;;5062281;28;20058;-80
2023/04/01 03:09:36;;;;;;;16.30;9.80;;;9.70;99.90;;;;;;5081240;28;20052;-80
2023/04/01 03:12:02;;;;;;;16.95;10.25;;;9.70;99.90;;;;;;5064238;28;20052;-80
2023/04/01 03:14:28;;;;;;;16.23;10.50;;;9.70;99.90;;;;;;5063576;28;20048;-80
2023/04/01 03:16:54;;;;;;;16.63;10.63;;;9.70;99.90;;;;;;5047643;28;20431;-80
2023/04/01 03:19:20;;;;;;;16.13;10.65;;;9.70;99.90;;;;;;5064096;28;20039;-80
2023/04/01 03:21:46;;;;;;;18.17;11.57;;;9.70;99.90;;;;;;5045313;28;20048;-80
2023/04/01 03:24:11;;;;;;;18.85;11.05;;;9.70;99.90;;;;;;5046920;28;20134;-80
2023/04/01 03:26:37;;;;;;;18.25;11.40;;;9.70;99.90;;;;;;5063650;28;20482;-80
2023/04/01 03:29:03;;;;;;;18.23;11.38;;;9.70;99.90;;;;;;5046914;28;20107;-80
2023/04/01 03:31:29;;;;;;;17.55;10.98;;;9.70;99.90;;;;;;5063310;28;20064;-80
2023/04/01 03:33:54;;;;;;;18.95;11.23;;;9.70;99.90;;;;;;5044113;28;20473;-80
2023/04/01 03:36:21;;;;;;;17.50;11.98;;;9.70;99.90;;;;;;5045664;28;20146;-80
2023/04/01 03:38:47;;;;;;;18.23;11.63;;;9.70;99.90;;;;;;5032790;28;20044;-80
2023/04/01 03:41:17;;;;;;;19.60;11.43;;;9.70;99.90;;;;;;5063086;28;20060;-80
2023/04/01 03:43:44;;;;;;;19.10;11.55;;;9.70;99.90;;;;;;5060900;28;20055;-80
2023/04/01 03:46:10;;;;;;;18.88;11.00;;;9.70;99.90;;;;;;5044968;28;20040;-80
2023/04/01 03:48:36;;;;;;;18.33;11.07;;;9.70;99.90;;;;;;5060845;28;20072;-80
2023/04/01 03:51:08;;;;;;;17.13;11.18;;;9.70;99.90;;;;;;5046957;28;20178;-80
2023/04/01 03:53:34;;;;;;;18.92;11.65;;;9.70;99.90;;;;;;5060469;28;20044;-80
2023/04/01 03:56:04;;;;;;;19.05;11.40;;;9.70;99.90;;;;;;5028608;28;20086;-80
2023/04/01 03:58:30;;;;;;;17.70;10.75;;;9.70;99.90;;;;;;5062193;28;20040;-80
2023/04/01 04:00:55;;;;;;;17.08;11.48;;;9.70;99.90;;;;;;5045084;28;20109;-80
2023/04/01 04:03:21;;;;;;;19.85;11.27;;;9.70;99.90;;;;;;5045931;28;20032;-80
2023/04/01 04:05:48;;;;;;;18.80;11.30;;;9.70;99.90;;;;;;5062547;28;20040;-80
2023/04/01 04:08:14;;;;;;;18.30;11.98;;;9.70;99.90;;;;;;5063151;28;20228;-80
2023/04/01 04:10:41;;;;;;;18.50;12.38;;;9.70;99.90;;;;;;5063471;28;20060;-80
2023/04/01 04:13:06;;;;;;;19.15;12.40;;;9.70;99.90;;;;;;5030327;28;20045;-80
2023/04/01 04:15:33;;;;;;;17.38;11.38;;;9.70;99.90;;;;;;5046067;28;20037;-80
2023/04/01 04:17:58;;;;;;;17.88;11.80;;;9.70;99.90;;;;;;5041601;28;20638;-80
2023/04/01 04:20:24;;;;;;;17.60;11.25;;;9.70;99.90;;;;;;5062682;28;20044;-80
2023/04/01 04:22:50;;;;;;;18.73;12.57;;;9.70;99.90;;;;;;5062472;28;20099;-80
2023/04/01 04:25:16;;;;;;;17.45;11.32;;;9.70;99.90;;;;;;5063993;28;20040;-80
2023/04/01 04:27:42;;;;;;;21.17;12.48;;;9.70;99.90;;;;;;5062184;28;21446;-80
2023/04/01 04:30:08;;;;;;;19.75;12.40;;;9.70;99.90;;;;;;5044732;28;20375;-80
2023/04/01 04:32:34;;;;;;;19.20;12.88;;;11.00;99.90;;;;;;5063419;28;20056;-80
2023/04/01 04:35:00;;;;;;;18.15;12.00;;;9.70;99.90;;;;;;5078374;28;20143;-80
2023/04/01 04:37:26;;;;;;;18.80;12.05;;;9.70;99.90;;;;;;5061337;28;20032;-80
2023/04/01 04:39:52;;;;;;;19.00;13.15;;;9.70;99.90;;;;;;5047496;28;20386;-80
2023/04/01 04:42:17;;;;;;;18.42;12.35;;;9.70;99.90;;;;;;5047178;28;20491;-80
2023/04/01 04:44:43;;;;;;;21.10;13.65;;;9.70;99.90;;;;;;5043358;28;20060;-80
2023/04/01 04:47:09;;;;;;;20.80;13.93;;;9.80;99.90;;;;;;5057914;28;20133;-80
2023/04/01 04:49:35;;;;;;;20.58;13.75;;;9.80;99.90;;;;;;5045780;28;20051;-80
2023/04/01 04:52:00;;;;;;;21.10;13.82;;;9.80;99.90;;;;;;5060095;28;20542;-80
2023/04/01 04:54:26;;;;;;;20.33;13.32;;;9.80;99.90;;;;;;5060823;28;20066;-80
2023/04/01 04:56:52;;;;;;;19.33;13.45;;;9.80;99.90;;;;;;5044111;28;20086;-80
2023/04/01 04:59:18;;;;;;;21.58;13.60;;;9.80;99.90;;;;;;5042921;28;20517;-80
2023/04/01 05:01:44;;;;;;;20.52;13.65;;;9.80;99.90;;;;;;5029550;28;20036;-80
2023/04/01 05:04:09;;;;;;;23.02;14.05;;;9.80;99.90;;;;;;5044244;28;20037;-80
2023/04/01 05:06:35;;;;;;;19.40;12.55;;;9.80;99.90;;;;;;5060639;28;20178;-80
2023/04/01 05:09:01;;;;;;;17.60;12.10;;;9.70;99.90;;;;;;5064751;28;20041;-80
2023/04/01 05:11:27;;;;;;;21.02;13.55;;;9.80;99.90;;;;;;5065045;28;20058;-80
2023/04/01 05:13:53;;;;;;;19.25;12.38;;;9.70;99.90;;;;;;5066466;28;20379;-80
2023/04/01 05:16:20;;;;;;;18.80;11.38;;;9.70;99.90;;;;;;5063710;28;20379;-80
2023/04/01 05:18:47;;;;;;;17.73;11.48;;;9.80;99.90;;;;;;5040792;28;20048;-80
2023/04/01 05:21:14;;;;;;;16.08;10.60;;;9.80;99.90;;;;;;5046667;28;20052;-80
2023/04/01 05:23:41;;;;;;;18.25;11.10;;;9.70;99.90;;;;;;5034385;28;20037;-80
2023/04/01 05:26:09;;;;;;;17.13;10.85;;;9.70;99.90;;;;;;5062323;28;20040;-80
2023/04/01 05:28:35;;;;;;;18.48;11.38;;;9.80;99.90;;;;;;5046968;28;20036;-80
2023/04/01 05:31:02;;;;;;;17.15;10.80;;;9.70;99.90;;;;;;5062876;28;20051;-80
2023/04/01 05:33:29;;;;;;;17.15;11.02;;;9.80;99.90;;;;;;5067330;28;20101;-80
2023/04/01 05:35:55;;;;;;;16.23;10.63;;;9.70;99.90;;;;;;5048981;28;20037;-80
2023/04/01 05:38:21;;;;;;;17.17;11.30;;;9.70;99.90;;;;;;5032026;28;20043;-80
2023/04/01 05:40:47;;;;;;;15.60;10.20;;;9.80;99.90;;;;;;5016981;28;20036;-81
2023/04/01 05:43:12;;;;;;;16.58;10.90;;;9.80;99.90;;;;;;5066257;28;20262;-81
2023/04/01 05:45:38;;;;;;;19.25;10.73;;;9.80;99.90;;;;;;5032089;28;20041;-80
2023/04/01 05:48:05;;;;;;;17.38;11.00;;;9.80;99.90;;;;;;5043649;28;20052;-80
2023/04/01 05:50:31;;;;;;;18.92;12.15;;;9.80;99.90;;;;;;5062927;28;20037;-80
2023/04/01 05:52:57;;;;;;;19.70;12.65;;;9.80;99.90;;;;;;5028742;28;20116;-80
2023/04/01 05:55:23;;;;;;;20.23;12.98;;;9.80;99.90;;;;;;5048617;28;20218;-80
2023/04/01 05:57:49;;;;;;;19.75;12.38;;;9.90;99.90;;;;;;5061940;28;20545;-80
2023/04/01 06:00:16;;;;;;;19.05;13.18;;;9.90;99.90;;;;;;5064151;28;20048;-80
2023/04/01 06:02:42;;;;;;;20.88;13.43;;;9.90;99.90;;;;;;5046758;28;20086;-80
2023/04/01 06:05:20;;;;;;;22.17;14.38;;;9.90;99.90;;;;;;5061735;28;20090;-80
2023/04/01 06:07:46;;;;;;;21.42;14.25;;;9.90;99.90;;;;;;5058485;28;20037;-79
2023/04/01 06:10:17;;;;;;;21.98;14.48;;;10.00;99.90;;;;;;5046429;28;20138;-79
2023/04/01 06:13:09;;;;;;;21.35;13.88;;;10.00;99.90;;;;;;5065347;28;20440;-79
2023/04/01 06:16:04;;;;;;;23.55;15.18;;;10.00;99.90;;;;;;5061749;28;20048;-79
2023/04/01 06:19:03;;;;;;;21.05;14.77;;;10.00;99.90;;;;;;5060320;28;20532;-79
2023/04/01 06:21:48;;;;;;;21.45;14.32;;;10.10;99.90;;;;;;5062703;28;20059;-79
2023/04/01 06:24:41;;;;;;;25.10;15.30;;;10.00;99.90;;;;;;5063662;28;20179;-79
2023/04/01 06:27:20;;;;;;;25.40;16.05;;;10.10;99.90;;;;;;5057187;28;20119;-79
2023/04/01 06:30:05;;;;;;;23.33;15.80;;;10.10;99.90;;;;;;5062460;28;20036;-80
2023/04/01 06:32:30;;;;;;;24.92;15.75;;;10.10;99.90;;;;;;5057899;28;20605;-79
2023/04/01 06:35:27;;;;;;;26.10;16.10;;;10.10;99.90;;;;;;5056149;28;20043;-80
2023/04/01 06:38:21;;;;;;;24.27;15.40;;;10.10;99.90;;;;;;5060596;28;20117;-80
2023/04/01 06:41:05;;;;;;;;;;;10.10;99.90;;;;;;5058579;28;20047;-80
2023/04/01 06:43:53;;;;;;;24.38;16.33;;;10.10;99.90;;;;;;5043801;28;20330;-80
2023/04/01 06:46:29;;;;;;;24.83;15.73;;;10.10;99.90;;;;;;5062818;28;20512;-80
2023/04/01 06:49:16;;;;;;;23.67;16.35;;;10.10;99.90;;;;;;5058109;28;20500;-80
2023/04/01 06:52:03;;;;;;;24.55;16.02;;;10.20;99.90;;;;;;5055586;28;20064;-79
2023/04/01 06:54:42;;;;;;;22.40;16.13;;;10.20;99.90;;;;;;5063020;28;20616;-80
2023/04/01 06:57:20;;;;;;;23.60;16.63;;;10.10;99.90;;;;;;5046151;28;20098;-80
2023/04/01 06:59:47;;;;;;;24.35;17.17;;;10.10;99.90;;;;;;5079301;28;20041;-80
2023/04/01 07:02:34;;;;;;;23.65;15.43;;;10.20;99.90;;;;;;5062728;28;20040;-80
2023/04/01 07:05:01;;;;;;;25.35;16.33;;;10.20;99.90;;;;;;5060247;28;20043;-80
2023/04/01 07:07:36;;;;;;;23.90;17.02;;;10.20;99.90;;;;;;5061033;28;20136;-80
2023/04/01 07:10:09;;;;;;;26.27;17.05;;;10.20;99.90;;;;;;5044367;28;20498;-80
2023/04/01 07:12:45;;;;;;;25.42;17.00;;;10.20;99.90;;;;;;5048092;28;20464;-80
2023/04/01 07:15:35;;;;;;;24.80;16.55;;;10.20;99.90;;;;;;5058864;28;20045;-80
2023/04/01 07:18:09;;;;;;;23.98;16.35;;;10.20;99.90;;;;;;5053496;28;20040;-80
2023/04/01 07:20:37;;;;;;;26.23;16.88;;;10.20;99.90;;;;;;5058318;28;20052;-80
2023/04/01 07:23:10;;;;;;;22.95;16.13;;;10.30;99.90;;;;;;5063997;28;20048;-80
2023/04/01 07:25:50;;;;;;;21.40;15.32;;;10.20;99.90;;;;;;5062971;28;20482;-81
2023/04/01 07:28:16;;;;;;;22.10;15.43;;;10.30;99.90;;;;;;5063293;28;20110;-81
2023/04/01 07:31:11;;;;;;;22.08;15.35;;;10.30;99.90;;;;;;5046370;28;20032;-80
2023/04/01 07:33:46;;;;;;;21.20;15.52;;;10.30;99.90;;;;;;5062998;28;20055;-81
2023/04/01 07:36:35;;;;;;;20.73;15.00;;;10.40;99.90;;;;;;5061457;28;20497;-80
2023/04/01 07:39:16;;;;;;;22.10;15.50;;;10.40;99.90;;;;;;5063990;28;20083;-81
2023/04/01 07:42:11;;;;;;;21.20;14.18;;;10.40;99.90;;;;;;5047537;28;20081;-81
2023/04/01 07:44:46;;;;;;;19.15;13.45;;;10.40;99.90;;;;;;5047066;28;20037;-81
2023/04/01 07:47:22;;;;;;;21.35;13.88;;;10.40;99.90;;;;;;5044047;28;20044;-79
2023/04/01 07:50:10;;;;;;;20.40;12.93;;;10.40;99.90;;;;;;5044763;28;20123;-79
2023/04/01 07:52:56;;;;;;;21.15;14.50;;;10.40;99.90;;;;;;5060831;28;20570;-79
2023/04/01 07:55:34;;;;;;;19.73;13.68;;;10.40;99.90;;;;;;5041829;28;20128;-80
2023/04/01 07:58:27;;;;;;;20.98;14.43;;;10.50;99.90;;;;;;5075972;28;20494;-79
2023/04/01 08:01:24;;;;;;;19.67;13.77;;;10.70;99.90;;;;;;5060289;28;20486;-79
2023/04/01 08:04:17;;;;;;;20.48;13.32;;;10.80;99.90;;;;;;5060294;28;20094;-79
2023/04/01 08:06:49;;;;;;;;;;;10.80;99.90;;;;;;5067939;28;20038;-79
2023/04/01 08:09:20;;;;;;;17.17;11.75;;;10.90;99.90;;;;;;5047312;28;19916;-79
2023/04/01 08:12:05;;;;;;;18.08;12.05;;;10.90;99.90;;;;;;5045088;28;20036;-80
2023/04/01 08:14:36;;;;;;;19.45;12.88;;;10.90;99.90;;;;;;5052473;28;20041;-79
2023/04/01 08:17:20;;;;;;;18.55;12.13;;;10.90;99.90;;;;;;5061193;28;20036;-79
2023/04/01 08:19:45;;;;;;;17.42;11.45;;;11.00;99.90;;;;;;5056500;28;20037;-79
2023/04/01 08:22:27;;;;;;;17.40;11.50;;;11.00;99.90;;;;;;5041599;28;20055;-79
2023/04/01 08:24:59;;;;;;;19.27;11.80;;;11.00;99.90;;;;;;5059299;28;20043;-79
2023/04/01 08:27:37;;;;;;;18.77;12.35;;;11.00;99.90;;;;;;5042585;28;20048;-79
2023/04/01 08:30:32;;;;;;;17.95;11.85;;;11.00;99.90;;;;;;5059680;28;20516;-79
2023/04/01 08:33:16;;;;;;;17.83;12.30;;;11.10;99.90;;;;;;5056098;28;20052;-79
2023/04/01 08:35:45;;;;;;;18.45;12.13;;;11.30;99.90;;;;;;5040489;28;20052;-79
2023/04/01 08:38:53;;;;;;;17.13;11.45;;;11.40;99.90;;;;;;5061934;28;20124;-79
2023/04/01 08:41:30;;;;;;;16.52;11.05;;;11.40;99.90;;;;;;5018555;28;20388;-79
2023/04/01 08:44:14;;;;;;;17.05;10.63;;;11.40;99.90;;;;;;4986869;28;20045;-80
2023/04/01 08:46:52;;;;;;;16.73;10.07;;;11.40;99.90;;;;;;5043606;28;20063;-80
2023/04/01 08:49:50;;;;;;;15.15;10.35;;;11.50;99.90;;;;;;5058701;28;20097;-79
2023/04/01 08:52:50;;;;;;;15.05;9.23;;;11.50;99.90;;;;;;5005452;28;20088;-78
2023/04/01 08:55:40;;;;;;;13.65;8.65;;;11.60;99.90;;;;;;5059653;28;20039;-79
2023/04/01 08:58:08;;;;;;;13.43;8.55;;;11.50;99.90;;;;;;5048658;28;20076;-79
2023/04/01 09:00:49;;;;;;;16.00;8.98;;;11.50;99.90;;;;;;5061323;28;20529;-79
2023/04/01 09:03:29;;;;;;;12.60;7.35;;;11.50;99.90;;;;;;5045963;28;20037;-80
2023/04/01 09:06:00;;;;;;;11.55;5.70;;;11.40;99.90;;;;;;5060635;28;20115;-79
2023/04/01 09:08:36;;;;;;;10.02;5.60;;;11.20;99.90;;;;;;5063467;28;20041;-78
2023/04/01 09:11:05;;;;;;;9.82;5.18;;;11.00;99.90;;;;;;5065933;28;20032;-79
2023/04/01 09:14:02;;;;;;;9.63;4.57;;;10.80;99.90;;;;;;5061485;28;20037;-78
2023/04/01 09:16:54;;;;;;;8.85;4.18;;;10.70;99.90;;;;;;5046661;28;20048;-79
2023/04/01 09:19:39;;;;;;;9.70;3.97;;;10.70;99.90;;;;;;5060907;28;20079;-79
2023/04/01 09:22:25;;;;;;;7.95;3.30;;;10.60;99.90;;;;;;5043439;28;20057;-80
2023/04/01 09:25:20;;;;;;;8.50;2.97;;;10.50;99.90;;;;;;5060102;28;20055;-79
2023/04/01 09:28:14;;;;;;;8.27;3.90;;;10.40;99.90;;;;;;5062288;28;20040;-80
2023/04/01 09:30:46;;;;;;;8.52;3.35;;;10.40;99.90;;;;;;5044135;28;20049;-80
2023/04/01 09:33:42;;;;;;;8.60;3.20;;;10.40;99.90;;;;;;5047357;28;20043;-79
2023/04/01 09:36:28;;;;;;;8.23;3.60;;;10.50;99.90;;;;;;5063955;28;20048;-79
2023/04/01 09:38:59;;;;;;;8.13;3.55;;;10.50;99.90;;;;;;5064428;28;20044;-80
2023/04/01 09:41:32;;;;;;;8.13;2.97;;;10.40;99.90;;;;;;5042252;28;20056;-79
2023/04/01 09:44:08;;;;;;;;;;;10.40;99.90;;;;;;5048987;28;20063;-79
2023/04/01 09:46:53;;;;;;;8.02;3.42;;;10.40;99.90;;;;;;5065864;28;20388;-81
2023/04/01 09:49:48;;;;;;;8.23;3.20;;;10.30;99.90;;;;;;5064279;28;20051;-80
2023/04/01 09:52:38;;;;;;;7.93;3.50;;;10.20;99.90;;;;;;5064499;28;20067;-79
2023/04/01 09:56:05;;;;;;;8.23;4.10;;;10.20;99.90;;;;;;5046389;28;20041;-80
2023/04/01 09:59:06;;;;;;;8.18;4.07;;;10.30;99.90;;;;;;5048199;28;20039;-80
2023/04/01 10:01:47;;;;;;;8.13;3.13;;;10.20;99.90;;;;;;5044170;28;20045;-80
2023/04/01 10:04:25;;;;;;;8.10;3.45;;;10.20;99.90;;;;;;5064644;28;20055;-80
2023/04/01 10:07:12;;;;;;;9.15;3.00;;;9.00;99.90;;;;;;5079666;28;20060;-80
2023/04/01 10:09:59;;;;;;;7.88;2.90;;;10.20;99.90;;;;;;5046181;28;20060;-80
2023/04/01 10:13:03;;;;;;;7.43;2.80;;;10.20;99.90;;;;;;5047297;28;20067;-80
2023/04/01 10:15:47;;;;;;;6.38;2.50;;;10.10;99.90;;;;;;5041757;28;20037;-80
2023/04/01 10:18:37;;;;;;;5.85;2.30;;;10.00;99.90;;;;;;5039300;28;20110;-80
2023/04/01 10:21:40;;;;;;;7.80;2.67;;;10.00;99.90;;;;;;5043944;28;20056;-80
2023/04/01 10:24:05;;;;;;;6.83;2.43;;;9.90;99.90;;;;;;5064858;28;20456;-80
2023/04/01 10:26:49;;;;;;;7.57;3.15;;;9.90;99.90;;;;;;5048128;28;20037;-80
2023/04/01 10:29:36;;;;;;;6.80;2.60;;;10.00;99.90;;;;;;5062809;28;20039;-80
2023/04/01 10:32:30;;;;;;;8.73;2.75;;;10.00;99.90;;;;;;5047520;28;20124;-80
2023/04/01 10:35:15;;;;;;;7.78;3.15;;;10.10;99.90;;;;;;5064742;28;20033;-80
2023/04/01 10:38:05;;;;;;;8.43;4.03;;;10.10;99.90;;;;;;5064150;28;20064;-80
2023/04/01 10:41:13;;;;;;;7.90;3.85;;;10.20;99.90;;;;;;5063199;28;20562;-80
2023/04/01 10:43:48;;;;;;;7.28;3.15;;;10.20;99.90;;;;;;5037569;28;20041;-80
2023/04/01 10:47:14;;;;;;;7.30;2.58;;;10.20;99.90;;;;;;5064493;28;20101;-80
2023/04/01 10:50:23;;;;;;;6.18;2.40;;;10.10;99.90;;;;;;4990356;28;20050;-80
2023/04/01 10:53:20;;;;;;;6.88;2.78;;;10.00;99.90;;;;;;5058579;28;20432;-80
2023/04/01 10:56:20;;;;;;;7.53;3.50;;;9.90;99.90;;;;;;5045152;28;20037;-81
2023/04/01 10:59:13;;;;;;;7.75;3.10;;;10.00;99.90;;;;;;5044839;28;20513;-81
2023/04/01 11:01:59;;;;;;;;;;;10.00;99.90;;;;;;5061926;28;20032;-81
2023/04/01 11:04:44;;;;;;;6.93;2.88;;;9.90;99.90;;;;;;5058874;28;19946;-81
2023/04/01 11:07:40;;;;;;;7.40;3.08;;;9.90;99.90;;;;;;5063270;28;20440;-80
2023/04/01 11:10:33;;;;;;;7.40;3.13;;;9.90;99.90;;;;;;5042168;28;20410;-81
2023/04/01 11:13:17;;;;;;;7.20;3.15;;;9.90;99.90;;;;;;5060149;28;20039;-81
2023/04/01 11:16:07;;;;;;;7.00;3.10;;;9.90;99.90;;;;;;5055212;28;20037;-81
2023/04/01 11:19:17;;;;;;;7.53;3.50;;;9.90;99.90;;;;;;5062277;28;20087;-81
2023/04/01 11:21:53;;;;;;;7.80;3.50;;;10.00;99.90;;;;;;5062054;28;20156;-81
2023/04/01 11:24:39;;;;;;;7.93;3.70;;;10.00;99.90;;;;;;5058077;28;20041;-81
2023/04/01 11:27:23;;;;;;;8.38;4.10;;;10.00;99.90;;;;;;5059726;28;20462;-81
2023/04/01 11:29:54;;;;;;;6.85;2.80;;;10.00;99.90;;;;;;5039631;28;20549;-80
2023/04/01 11:32:41;;;;;;;6.78;2.90;;;9.90;99.90;;;;;;5059754;28;20367;-81
2023/04/01 11:35:25;;;;;;;6.95;2.80;;;10.00;99.90;;;;;;5056939;28;20670;-81
2023/04/01 11:38:13;;;;;;;6.25;2.50;;;10.00;99.90;;;;;;5062429;28;20405;-81
2023/04/01 11:41:17;;;;;;;6.95;3.00;;;10.00;99.90;;;;;;5060590;28;20563;-81
2023/04/01 11:43:52;;;;;;;7.72;3.17;;;10.10;99.90;;;;;;5011545;28;20051;-80
2023/04/01 11:46:28;;;;;;;8.73;4.28;;;10.20;99.90;;;;;;5058858;28;20324;-81
2023/04/01 11:49:06;;;;;;;7.50;3.50;;;10.30;99.90;;;;;;5052917;28;20144;-81
2023/04/01 11:51:43;;;;;;;7.68;3.22;;;10.30;99.90;;;;;;5060963;28;20047;-81
2023/04/01 11:54:41;;;;;;;8.63;3.45;;;10.20;99.90;;;;;;5063671;28;20040;-81
2023/04/01 11:57:38;;;;;;;6.85;3.20;;;10.30;99.90;;;;;;5046746;28;21260;-81
2023/04/01 12:00:19;;;;;;;6.55;2.72;;;10.30;99.90;;;;;;5061431;28;20462;-81
2023/04/01 12:03:26;;;;;;;6.28;2.15;;;10.30;99.90;;;;;;5063860;28;20072;-80
2023/04/01 12:06:12;;;;;;;6.82;2.40;;;10.30;99.90;;;;;;5061778;28;20041;-81
2023/04/01 12:08:46;;;;;;;5.95;2.10;;;10.20;99.90;;;;;;5062119;28;20048;-80
2023/04/01 12:11:30;;;;;;;5.93;2.20;;;10.20;99.90;;;;;;5062859;28;20592;-80
2023/04/01 12:14:14;;;;;;;7.38;2.78;;;10.20;99.90;;;;;;5062174;28;20500;-81
2023/04/01 12:16:59;;;;;;;7.47;3.00;;;10.20;99.90;;;;;;5047227;28;20033;-81
2023/04/01 12:19:46;;;;;;;6.07;2.60;;;10.20;99.90;;;;;;5061792;28;20480;-80
2023/04/01 12:22:39;;;;;;;5.70;2.53;;;10.20;99.90;;;;;;5085637;28;20515;-81
2023/04/01 12:25:04;;;;;;;7.15;2.60;;;10.10;99.90;;;;;;5051208;28;20048;-80
2023/04/01 12:27:41;;;;;;;7.68;3.05;;;10.10;99.90;;;;;;5053452;28;20039;-81
2023/04/01 12:30:25;;;;;;;6.28;2.50;;;10.10;99.90;;;;;;5069764;28;20402;-80
2023/04/01 12:33:05;;;;;;;6.18;2.50;;;10.00;99.90;;;;;;5069549;28;20032;-80
2023/04/01 12:35:33;;;;;;;7.72;3.40;;;10.10;99.90;;;;;;5049556;28;20041;-80
2023/04/01 12:38:24;;;;;;;7.05;2.90;;;10.00;99.90;;;;;;5070273;28;20120;-80
2023/04/01 12:41:18;;;;;;;6.15;2.40;;;10.00;99.90;;;;;;5049889;28;20117;-80
2023/04/01 12:44:09;;;;;;;6.25;2.55;;;10.00;99.90;;;;;;5068282;28;20516;-80
2023/04/01 12:46:56;;;;;;;7.10;2.70;;;10.00;99.90;;;;;;5068291;28;20339;-80
2023/04/01 12:49:48;;;;;;;7.28;3.40;;;10.00;99.90;;;;;;5069398;28;20033;-80
2023/04/01 12:52:42;;;;;;;6.55;2.92;;;9.90;99.90;;;;;;5052967;28;20415;-80
2023/04/01 12:55:23;;;;;;;;;;;9.80;99.90;;;;;;5069797;28;20098;-80
2023/04/01 12:58:10;;;;;;;6.88;2.45;;;9.80;99.90;;;;;;5069840;28;19931;-80
2023/04/01 13:00:59;;;;;;;5.88;2.38;;;9.70;99.90;;;;;;5066094;28;20125;-80
2023/04/01 13:03:57;;;;;;;6.18;2.67;;;9.70;99.90;;;;;;4353408;28;9999938;-79
2023/04/01 13:06:35;;;;;;;6.53;2.97;;;9.70;99.90;;;;;;5056534;28;20502;-80
2023/04/01 13:09:23;;;;;;;6.75;2.78;;;9.70;99.90;;;;;;5066714;28;20033;-80
2023/04/01 13:11:55;;;;;;;6.38;2.63;;;9.70;99.90;;;;;;5048444;28;20037;-80
2023/04/01 13:14:27;;;;;;;5.40;2.20;;;9.60;99.90;;;;;;5049450;28;20048;-80
2023/04/01 13:16:55;;;;;;;5.80;2.15;;;9.70;99.90;;;;;;5078443;28;20462;-81
2023/04/01 13:19:42;;;;;;;7.57;2.40;;;9.70;99.90;;;;;;5066816;28;20063;-79
2023/04/01 13:22:36;;;;;;;5.55;2.13;;;9.70;99.90;;;;;;5063256;28;20052;-79
2023/04/01 13:25:29;;;;;;;5.82;2.20;;;9.70;99.90;;;;;;5039187;28;20236;-80
2023/04/01 13:28:12;;;;;;;6.22;2.20;;;9.70;99.90;;;;;;5044074;28;20498;-80
2023/04/01 13:30:54;;;;;;;5.25;2.00;;;9.80;99.90;;;;;;5060815;28;20067;-80